Time;durP1;ratioP1;P1;durP2;ratioP2;P2;SDS_P1;SDS_P2;PMS_P1;PMS_P2;Temp;Humidity;BMP_temperature;BMP_pressure;BME280_temperature;BME280_humidity;BME280_pressure;Samples;Min_cycle;Max_cycle;Signal;HPM_P1;HPM_P2
2022/08/11 00:01:27;;;;;;;2.03;1.48;;;;;;;20.99;41.81;99136.41;5088487;28;20027;-62
2022/08/11 00:04:01;;;;;;;3.38;1.58;;;;;;;20.96;41.79;99132.25;5089816;28;20425;-62
2022/08/11 00:06:37;;;;;;;4.03;1.65;;;;;;;20.96;41.77;99145.19;5104627;28;20028;-62
2022/08/11 00:09:17;;;;;;;2.58;1.60;;;;;;;20.96;41.78;99129.50;5088106;28;20023;-62
2022/08/11 00:11:52;;;;;;;6.32;1.63;;;;;;;20.98;41.89;99141.03;5090452;28;20016;-60
2022/08/11 00:14:30;;;;;;;4.40;1.48;;;;;;;20.95;41.88;99135.25;5086935;28;20067;-60
2022/08/11 00:17:04;;;;;;;2.90;1.53;;;;;;;20.90;42.03;99136.03;5092981;28;20024;-60
2022/08/11 00:19:33;;;;;;;2.88;1.25;;;;;;;20.92;42.21;99135.78;5082469;28;20020;-60
2022/08/11 00:22:00;;;;;;;3.08;1.70;;;;;;;20.97;42.13;99133.06;5088188;28;20049;-60
2022/08/11 00:24:35;;;;;;;2.17;1.50;;;;;;;20.94;42.36;99133.59;5087302;28;20118;-60
2022/08/11 00:27:01;;;;;;;2.15;1.50;;;;;;;20.87;42.34;99135.75;5090989;28;20027;-60
2022/08/11 00:29:26;;;;;;;6.93;1.77;;;;;;;20.85;42.51;99136.00;5087830;28;20050;-60
2022/08/11 00:31:53;;;;;;;6.97;1.80;;;;;;;20.86;42.56;99143.16;5088154;28;20065;-59
2022/08/11 00:34:28;;;;;;;2.72;1.60;;;;;;;20.87;42.46;99142.06;5088121;28;20027;-61
2022/08/11 00:36:59;;;;;;;4.03;1.95;;;;;;;20.87;42.70;99139.31;5089954;28;20015;-60
2022/08/11 00:39:25;;;;;;;3.10;1.67;;;;;;;20.90;42.44;99141.53;5082598;28;20015;-60
2022/08/11 00:42:06;;;;;;;6.00;1.55;;;;;;;20.87;42.72;99144.81;5088096;28;20015;-60
2022/08/11 00:44:37;;;;;;;3.60;2.15;;;;;;;20.86;42.74;99140.41;5087062;28;20153;-60
2022/08/11 00:47:34;;;;;;;4.75;2.13;;;;;;;20.81;42.73;99139.56;5088865;28;20129;-59
2022/08/11 00:50:11;;;;;;;2.55;1.58;;;;;;;20.74;43.05;99137.00;5087064;28;20039;-60
2022/08/11 00:52:55;;;;;;;3.88;1.60;;;;;;;20.69;43.20;99139.72;5086328;28;20423;-60
2022/08/11 00:55:50;;;;;;;8.35;2.13;;;;;;;20.62;43.41;99134.44;5085463;28;20051;-60
2022/08/11 00:58:53;;;;;;;2.58;1.70;;;;;;;20.66;43.39;99132.81;5091060;28;20020;-60
2022/08/11 01:01:27;;;;;;;2.35;1.55;;;;;;;20.60;43.37;99139.38;5086694;28;20566;-60
2022/08/11 01:04:08;;;;;;;4.13;1.90;;;;;;;20.56;43.63;99140.97;5111025;28;20019;-60
2022/08/11 01:06:37;;;;;;;2.00;1.58;;;;;;;20.59;43.66;99145.94;5085782;28;20400;-61
2022/08/11 01:09:08;;;;;;;2.85;1.65;;;;;;;20.58;43.73;99139.59;5087265;28;20019;-60
2022/08/11 01:12:23;;;;;;;4.40;1.70;;;;;;;20.50;43.71;99144.72;5089981;28;20023;-60
2022/08/11 01:15:04;;;;;;;3.00;1.70;;;;;;;20.43;44.02;99142.19;5090620;28;20043;-60
2022/08/11 01:18:07;;;;;;;4.68;1.92;;;;;;;20.40;44.00;99145.44;5090430;28;20141;-60
2022/08/11 01:20:35;;;;;;;2.55;1.67;;;;;;;20.40;43.97;99139.94;5084244;28;20059;-60
2022/08/11 01:23:26;;;;;;;2.77;1.50;;;;;;;20.35;43.95;99148.13;5087342;28;20070;-60
2022/08/11 01:26:01;;;;;;;3.33;1.63;;;;;;;20.33;44.16;99145.66;5091159;28;20277;-60
2022/08/11 01:28:54;;;;;;;3.15;1.50;;;;;;;20.28;44.18;99148.38;5081470;28;20024;-60
2022/08/11 01:31:28;;;;;;;3.85;1.50;;;;;;;20.24;44.25;99144.47;5081427;28;20402;-60
2022/08/11 01:34:19;;;;;;;3.78;1.90;;;;;;;20.18;44.49;99148.25;5089051;28;20160;-60
2022/08/11 01:37:36;;;;;;;4.45;1.92;;;;;;;20.11;44.75;99145.69;5089119;28;20023;-61
2022/08/11 01:40:08;;;;;;;3.58;1.77;;;;;;;20.04;44.92;99141.47;5086528;28;20031;-60
2022/08/11 01:46:04;;;;;;;3.40;1.70;;;;;;;20.12;44.73;99135.53;5098060;28;20038;-60
2022/08/11 01:48:41;;;;;;;2.95;1.60;;;;;;;20.09;44.94;99144.28;5089129;28;20024;-60
2022/08/11 01:51:12;;;;;;;2.47;1.80;;;;;;;20.06;44.91;99131.06;5080399;28;20024;-60
2022/08/11 01:54:00;;;;;;;2.38;1.73;;;;;;;19.98;45.12;99128.78;5085429;28;20027;-61
2022/08/11 01:56:37;;;;;;;3.92;1.75;;;;;;;19.92;45.29;99134.22;5087358;28;20028;-60
2022/08/11 01:59:18;;;;;;;2.72;1.90;;;;;;;19.88;45.47;99130.31;5093482;28;20027;-60
2022/08/11 02:02:18;;;;;;;7.28;1.65;;;;;;;19.81;45.84;99131.63;5087397;28;20122;-61
2022/08/11 02:04:58;;;;;;;4.97;1.90;;;;;;;19.72;45.98;99128.47;5088235;28;20059;-62
2022/08/11 02:07:45;;;;;;;2.80;1.70;;;;;;;19.71;46.03;99129.56;5089773;28;20027;-62
2022/08/11 02:13:51;;;;;;;4.00;1.70;;;;;;;19.55;46.40;99131.25;5103376;28;20050;-62
2022/08/11 02:17:01;;;;;;;2.97;1.60;;;;;;;19.47;46.89;99123.47;5104768;28;20046;-61
2022/08/11 02:25:34;;;;;;;4.05;1.75;;;;;;;19.52;46.81;99122.69;5103115;28;20031;-61
2022/08/11 02:28:22;;;;;;;5.55;1.75;;;;;;;19.49;46.82;99124.88;5090661;28;20023;-62
2022/08/11 02:34:25;;;;;;;4.63;1.70;;;;;;;19.32;47.41;99120.50;5097048;28;20047;-61
2022/08/11 02:36:56;;;;;;;2.38;1.50;;;;;;;19.21;47.61;99122.25;5085861;28;20035;-62
2022/08/11 02:39:34;;;;;;;2.60;2.08;;;;;;;19.18;47.89;99115.38;5081617;28;20050;-61
2022/08/11 02:42:23;;;;;;;3.65;1.80;;;;;;;19.25;47.68;99124.22;5088625;28;20025;-61
2022/08/11 02:45:27;;;;;;;4.38;1.60;;;;;;;19.35;47.38;99117.25;5085817;28;20024;-62
2022/08/11 02:51:42;;;;;;;5.18;1.95;;;;;;;19.51;46.88;99108.13;5100955;28;20034;-61
2022/08/11 02:54:28;;;;;;;2.30;1.55;;;;;;;19.57;46.80;99109.88;5087889;28;20031;-61
2022/08/11 02:57:19;;;;;;;4.32;1.90;;;;;;;19.63;46.64;99105.28;5078099;28;20015;-62
2022/08/11 03:00:08;;;;;;;3.80;1.75;;;;;;;19.62;46.75;99104.47;5083541;28;20030;-65
2022/08/11 03:03:03;;;;;;;2.55;1.40;;;;;;;19.60;46.95;99114.84;5079501;28;20020;-61
2022/08/11 03:05:36;;;;;;;3.00;1.77;;;;;;;19.56;46.96;99115.59;5088627;28;20031;-61
2022/08/11 03:08:14;;;;;;;3.75;1.80;;;;;;;19.57;46.88;99118.09;5084751;28;20073;-60
2022/08/11 03:16:43;;;;;;;4.80;1.43;;;;;;;19.51;46.88;99113.63;5097514;28;20107;-61
2022/08/11 03:16:49;;;;;;;3.22;1.83;;;;;;;19.51;46.96;99121.03;5104477;28;20505;-60
2022/08/11 03:19:40;;;;;;;3.10;1.80;;;;;;;19.55;46.93;99116.69;5087336;28;20028;-61
2022/08/11 03:22:15;;;;;;;3.42;1.70;;;;;;;19.54;46.86;99120.50;5108980;28;20012;-62
2022/08/11 03:24:52;;;;;;;4.97;1.88;;;;;;;19.49;46.90;99124.00;5082327;28;20485;-60
2022/08/11 03:27:39;;;;;;;3.30;1.90;;;;;;;19.60;47.10;99131.31;5106306;28;20114;-63
2022/08/11 03:30:29;;;;;;;2.45;1.75;;;;;;;19.65;46.74;99119.59;5083231;28;20467;-60
2022/08/11 03:36:15;;;;;;;2.95;1.73;;;;;;;19.69;46.86;99118.81;5096236;28;20034;-60
2022/08/11 03:39:02;;;;;;;3.03;1.60;;;;;;;19.67;46.93;99120.16;5079017;28;20019;-60
2022/08/11 03:41:44;;;;;;;10.48;1.88;;;;;;;19.67;46.91;99120.16;5099829;28;20015;-60
2022/08/11 03:44:27;;;;;;;2.35;1.63;;;;;;;19.60;47.02;99127.75;5091650;28;20067;-61
2022/08/11 03:47:24;;;;;;;3.50;1.80;;;;;;;19.70;46.79;99130.63;5087652;28;20072;-59
2022/08/11 03:50:00;;;;;;;2.95;1.88;;;;;;;19.72;46.73;99128.47;5076295;28;20039;-58
2022/08/11 03:52:52;;;;;;;4.97;2.00;;;;;;;19.69;46.79;99128.97;5087878;28;20031;-58
2022/08/11 03:55:30;;;;;;;5.10;2.00;;;;;;;19.66;46.93;99137.69;5113775;27;20042;-57
2022/08/11 03:58:17;;;;;;;2.65;1.80;;;;;;;19.69;46.88;99134.47;5101531;28;20027;-58
2022/08/11 04:01:32;;;;;;;3.90;1.27;;;;;;;19.64;47.13;99137.13;5084075;22;20124;-67
2022/08/11 04:04:28;;;;;;;3.50;1.50;;;;;;;19.52;47.40;99134.50;5086838;28;20024;-67
2022/08/11 04:07:22;;;;;;;4.13;1.80;;;;;;;19.31;47.75;99124.31;5088168;28;20028;-65
2022/08/11 04:10:13;;;;;;;3.70;1.80;;;;;;;19.21;48.22;99130.50;5080136;28;20040;-68
2022/08/11 04:13:15;;;;;;;4.55;1.55;;;;;;;19.24;48.21;99122.59;5068735;28;20485;-67
2022/08/11 04:16:14;;;;;;;2.75;1.80;;;;;;;19.25;48.39;99126.16;5069061;28;20086;-67
2022/08/11 04:19:07;;;;;;;2.53;1.60;;;;;;;19.17;48.65;99121.91;5065653;28;20269;-66
2022/08/11 04:21:47;;;;;;;3.83;1.50;;;;;;;19.20;48.32;99109.63;5068197;28;20058;-69
2022/08/11 04:24:35;;;;;;;3.90;1.88;;;;;;;19.28;48.45;99133.88;5063703;28;20024;-69
2022/08/11 04:27:12;;;;;;;4.13;1.65;;;;;;;19.23;48.37;99131.06;5064453;28;20381;-67
2022/08/11 04:30:04;;;;;;;3.53;1.90;;;;;;;19.18;48.72;99131.00;5064999;28;20037;-67
2022/08/11 04:32:57;;;;;;;2.22;1.67;;;;;;;19.09;49.38;99129.75;5062098;28;20063;-65
2022/08/11 04:35:31;;;;;;;3.60;1.90;;;;;;;18.73;49.94;99107.22;5067719;28;20059;-76
2022/08/11 04:38:18;;;;;;;3.13;2.28;;;;;;;18.60;50.72;99128.41;5068867;28;20485;-74
2022/08/11 04:41:13;;;;;;;6.28;2.33;;;;;;;18.45;51.09;99136.34;5069688;28;20047;-66
2022/08/11 04:44:16;;;;;;;3.72;1.90;;;;;;;18.47;50.92;99139.69;5066761;28;20377;-72
2022/08/11 05:01:39;;;;;;;4.90;1.85;;;;;;;18.71;50.53;99147.78;5073053;28;20096;-70
2022/08/11 05:02:45;;;;;;;3.53;1.80;;;;;;;19.68;48.14;99146.56;5069419;28;20125;-74
2022/08/11 05:05:31;;;;;;;3.35;1.48;;;;;;;19.80;47.84;99138.19;5067374;28;20024;-73
2022/08/11 05:08:43;;;;;;;2.72;1.80;;;;;;;19.87;47.74;99142.38;5071363;28;20027;-68
2022/08/11 05:11:30;;;;;;;2.75;1.85;;;;;;;20.01;47.31;99144.75;5066929;28;20062;-69
2022/08/11 05:37:24;;;;;;;3.38;1.75;;;;;;;20.84;45.82;99150.03;5071007;28;20094;-65
2022/08/11 05:56:54;;;;;;;3.83;1.80;;;;;;;21.53;44.78;99149.16;5083187;28;20153;-68
2022/08/11 05:59:22;;;;;;;3.60;1.83;;;;;;;21.65;44.59;99147.84;5075963;28;20091;-67
2022/08/11 06:01:49;;;;;;;2.03;1.80;;;;;;;21.82;44.24;99150.41;5061724;28;20020;-70
2022/08/11 06:04:23;;;;;;;5.07;2.22;;;;;;;21.95;44.16;99149.06;5070363;28;20031;-70
2022/08/11 06:06:56;;;;;;;5.70;2.05;;;;;;;22.10;43.58;99154.66;5070820;28;20029;-74
2022/08/11 06:09:35;;;;;;;7.25;2.17;;;;;;;22.26;43.79;99158.31;5080994;28;20082;-69
2022/08/11 06:12:05;;;;;;;3.58;1.90;;;;;;;22.49;43.05;99136.84;5059862;28;20135;-67
2022/08/11 06:14:32;;;;;;;4.75;1.92;;;;;;;22.62;42.73;99144.59;5066057;28;20108;-67
2022/08/11 06:16:59;;;;;;;3.50;2.17;;;;;;;22.68;42.51;99143.50;5066367;28;20054;-69
2022/08/11 06:19:34;;;;;;;5.25;1.92;;;;;;;22.74;42.26;99139.66;5059803;28;20028;-67
2022/08/11 06:22:02;;;;;;;2.67;2.00;;;;;;;23.62;40.79;99138.44;5067812;28;20017;-74
2022/08/11 06:24:28;;;;;;;3.10;2.05;;;;;;;25.24;38.18;99133.38;5082279;28;20016;-72
2022/08/11 06:26:55;;;;;;;3.42;2.25;;;;;;;25.30;37.08;99121.13;5067112;28;20078;-69
2022/08/11 06:29:22;;;;;;;7.75;2.05;;;;;;;26.34;35.59;99134.28;5061821;28;21736;-72
2022/08/11 06:32:00;;;;;;;5.10;2.00;;;;;;;26.96;34.95;99136.13;5064996;28;20027;-70
2022/08/11 06:35:03;;;;;;;3.20;1.85;;;;;;;26.68;35.22;99138.81;5064863;28;20494;-71
2022/08/11 06:38:00;;;;;;;4.45;1.98;;;;;;;26.49;35.36;99143.50;5064992;28;20021;-70
2022/08/11 06:41:28;;;;;;;2.88;1.73;;;;;;;27.03;34.54;99134.59;5049658;28;20505;-70
2022/08/11 06:43:50;;;;;;;4.53;1.80;;;;;;;27.93;33.25;99140.75;5068925;28;20511;-70
2022/08/11 06:46:22;;;;;;;4.53;1.80;;;;;;;28.35;32.41;99132.34;5061337;28;20017;-71
2022/08/11 06:48:48;;;;;;;4.45;2.15;;;;;;;29.26;31.19;99131.28;5065149;28;20028;-69
2022/08/11 06:51:15;;;;;;;5.35;2.08;;;;;;;30.39;30.02;99126.13;5063488;28;20024;-74
2022/08/11 06:53:45;;;;;;;3.00;1.88;;;;;;;31.45;28.56;99142.50;5066294;28;20485;-70
2022/08/11 07:01:50;;;;;;;4.00;2.03;;;;;;;30.65;29.65;99151.25;5063230;28;20031;-71
2022/08/11 07:04:48;;;;;;;4.45;2.00;;;;;;;32.18;27.35;99131.16;5065052;28;20027;-75
2022/08/11 07:16:10;;;;;;;3.88;1.80;;;;;;;31.99;27.29;99155.94;5063587;28;20172;-71
2022/08/11 07:29:56;;;;;;;4.88;1.90;;;;;;;31.18;28.14;99124.97;5067171;28;20157;-72
2022/08/11 07:32:27;;;;;;;5.53;2.10;;;;;;;31.05;28.41;99139.09;5068582;28;20111;-69
2022/08/11 07:35:14;;;;;;;3.03;1.90;;;;;;;31.32;28.36;99149.09;5073041;28;20028;-71
2022/08/11 07:37:42;;;;;;;2.85;1.77;;;;;;;30.02;29.55;99124.72;5070811;28;20560;-73
2022/08/11 07:40:09;;;;;;;3.67;2.10;;;;;;;31.74;28.09;99140.91;5062567;28;20020;-70
2022/08/11 07:42:37;;;;;;;2.78;1.80;;;;;;;30.83;28.64;99143.72;5070290;28;20386;-67
2022/08/11 07:53:28;;;;;;;7.88;1.50;;;;;;;31.58;27.62;99130.28;5062410;28;20048;-71
2022/08/11 07:56:00;;;;;;;4.18;2.00;;;;;;;31.69;27.58;99113.94;5073789;28;20020;-68
2022/08/11 08:17:56;;;;;;;4.03;1.67;;;;;;;33.36;26.05;99132.78;5073633;28;20034;-71
2022/08/11 08:20:27;;;;;;;3.63;1.67;;;;;;;34.67;24.35;99126.25;5068962;28;20551;-73
2022/08/11 08:22:55;;;;;;;3.58;1.70;;;;;;;35.66;23.53;99131.38;5072021;28;20036;-69
2022/08/11 08:25:50;;;;;;;3.28;1.70;;;;;;;35.34;23.14;99126.53;5069283;28;20482;-71
2022/08/11 08:28:19;;;;;;;4.53;1.60;;;;;;;35.56;23.44;99132.72;5069779;28;20037;-73
2022/08/11 08:30:49;;;;;;;2.92;1.70;;;;;;;36.82;22.27;99120.44;5068677;28;20052;-73
2022/08/11 08:33:26;;;;;;;3.17;1.63;;;;;;;35.28;23.75;99130.78;5067746;28;20394;-69
2022/08/11 08:36:10;;;;;;;4.22;2.00;;;;;;;37.43;22.06;99126.44;5064027;28;20592;-68
2022/08/11 08:38:42;;;;;;;3.25;1.40;;;;;;;36.58;22.13;99126.38;5068649;28;20059;-69
2022/08/11 08:41:08;;;;;;;2.80;1.48;;;;;;;37.89;20.84;99129.28;5070544;28;20484;-69
2022/08/11 08:43:36;;;;;;;2.50;1.40;;;;;;;38.22;20.76;99139.09;5072343;28;20081;-70
2022/08/11 08:46:07;;;;;;;2.47;1.45;;;;;;;37.34;21.01;99135.16;5067386;28;20031;-70
2022/08/11 08:48:34;;;;;;;2.17;1.30;;;;;;;36.17;22.03;99132.25;5068082;28;20599;-68
2022/08/11 08:53:50;;;;;;;2.97;1.38;;;;;;;36.76;21.27;99133.19;5068814;28;20039;-68
2022/08/11 08:56:17;;;;;;;3.42;1.27;;;;;;;36.02;22.00;99118.19;5055190;28;20539;-70
2022/08/11 08:58:47;;;;;;;2.67;1.20;;;;;;;36.85;21.70;99139.41;5064466;28;20450;-67
2022/08/11 09:01:15;;;;;;;2.25;1.35;;;;;;;36.82;21.00;99133.72;5064096;28;20017;-67
2022/08/11 09:03:41;;;;;;;2.67;1.40;;;;;;;36.84;21.43;99131.34;5062829;28;20041;-68
2022/08/11 09:06:07;;;;;;;4.88;1.30;;;;;;;36.10;21.61;99120.00;5067111;28;20025;-67
2022/08/11 09:08:34;;;;;;;2.78;1.52;;;;;;;35.90;21.89;99133.19;5066439;28;20082;-68
2022/08/11 09:13:46;;;;;;;3.65;1.30;;;;;;;37.13;20.30;99129.94;5069271;28;20032;-69
2022/08/11 09:16:12;;;;;;;3.47;1.40;;;;;;;36.58;20.69;99120.72;5064601;28;20035;-68
2022/08/11 09:18:43;;;;;;;1.63;1.42;;;;;;;36.34;21.12;99121.75;5068653;28;20032;-68
2022/08/11 09:21:10;;;;;;;2.85;1.27;;;;;;;35.00;21.67;99111.09;5069035;28;20032;-68
2022/08/11 09:29:08;;;;;;;1.48;1.00;;;;;;;35.73;20.40;99131.56;5067550;28;20044;-68
2022/08/11 09:31:34;;;;;;;2.47;1.20;;;;;;;35.49;20.60;99122.09;5066247;28;20162;-68
2022/08/11 09:34:01;;;;;;;2.97;1.13;;;;;;;36.08;20.58;99117.56;5066456;28;20662;-68
2022/08/11 09:42:01;;;;;;;4.40;1.38;;;;;;;36.70;20.35;99126.22;5069187;28;20040;-68
2022/08/11 09:44:47;;;;;;;2.92;1.23;;;;;;;36.99;19.50;99112.69;5069300;28;20393;-69
2022/08/11 09:47:18;;;;;;;3.05;1.17;;;;;;;37.75;19.11;99129.03;5060251;28;20378;-68
2022/08/11 09:49:45;;;;;;;3.65;1.20;;;;;;;38.18;18.33;99126.94;5068059;28;20028;-69
2022/08/11 09:52:13;;;;;;;3.20;1.15;;;;;;;37.47;19.52;99121.69;5066013;28;20023;-68
2022/08/11 09:54:43;;;;;;;1.60;1.10;;;;;;;38.31;18.50;99102.91;5063906;28;20028;-69
2022/08/11 09:59:53;;;;;;;1.95;1.10;;;;;;;38.13;18.52;99108.28;5112655;22;20085;-69
2022/08/11 10:02:26;;;;;;;2.35;1.10;;;;;;;37.26;19.23;99111.63;5083557;28;20493;-71
2022/08/11 10:07:00;;;;;;;4.22;1.38;;;;;;;38.44;18.76;99101.50;5082951;28;20099;-71
2022/08/11 10:07:49;;;;;;;4.90;1.10;;;;;;;39.83;17.07;99095.72;5081582;28;20089;-70
2022/08/11 10:10:15;;;;;;;1.60;1.20;;;;;;;38.52;18.28;99106.03;5092767;28;20084;-70
2022/08/11 10:12:56;;;;;;;2.17;1.20;;;;;;;37.12;19.18;99104.91;5107269;28;20026;-70
2022/08/11 10:15:37;;;;;;;2.67;1.52;;;;;;;37.63;19.06;99101.81;5099243;28;20031;-70
2022/08/11 10:21:10;;;;;;;1.60;1.10;;;;;;;37.11;19.35;99098.44;5105768;28;20101;-71
2022/08/11 10:34:44;;;;;;;2.40;1.10;;;;;;;36.05;19.82;99089.28;5104470;28;20054;-71
2022/08/11 10:37:10;;;;;;;6.05;1.10;;;;;;;36.79;19.31;99070.41;5105883;28;20046;-70
2022/08/11 10:39:37;;;;;;;3.25;1.10;;;;;;;36.46;19.77;99072.91;5109437;28;20102;-70
2022/08/11 10:44:52;;;;;;;1.67;0.93;;;;;;;36.77;19.49;99067.16;5105814;28;20491;-71
2022/08/11 10:47:38;;;;;;;3.72;1.25;;;;;;;37.70;18.73;99066.06;5102997;28;20107;-72
2022/08/11 11:01:21;;;;;;;1.80;0.88;;;;;;;37.92;18.71;99047.41;5099479;28;20426;-69
2022/08/11 11:03:47;;;;;;;1.83;1.13;;;;;;;38.91;17.88;99051.97;5100629;28;20136;-68
2022/08/11 11:06:34;;;;;;;1.65;0.98;;;;;;;39.35;17.06;99054.03;5106866;28;20062;-69
2022/08/11 11:09:07;;;;;;;3.55;1.00;;;;;;;39.65;16.56;99056.72;5102728;28;21967;-71
2022/08/11 11:19:38;;;;;;;3.17;1.15;;;;;;;38.21;17.33;99042.19;5106004;28;20461;-69
2022/08/11 11:25:15;;;;;;;1.23;0.90;;;;;;;37.42;17.88;99042.97;5107640;28;20038;-69
2022/08/11 11:28:03;;;;;;;1.50;1.10;;;;;;;39.37;16.52;99040.31;5098824;28;20027;-71
2022/08/11 11:30:43;;;;;;;2.55;0.95;;;;;;;39.49;16.13;99035.56;5099653;28;20127;-71
2022/08/11 11:33:39;;;;;;;3.08;1.08;;;;;;;39.58;16.52;99021.88;5103834;28;20032;-72
2022/08/11 11:36:26;;;;;;;1.45;1.05;;;;;;;39.35;16.11;99022.88;5107746;28;20034;-72
2022/08/11 11:38:55;;;;;;;2.72;0.85;;;;;;;38.43;16.45;98986.75;5102623;28;20038;-73
2022/08/11 11:41:24;;;;;;;1.98;1.08;;;;;;;37.10;17.36;99003.75;5102754;28;20370;-72
2022/08/11 11:43:55;;;;;;;1.92;1.20;;;;;;;36.69;17.74;99011.81;5108743;28;20032;-71
2022/08/11 11:46:25;;;;;;;3.65;1.10;;;;;;;37.09;17.95;99012.56;5104947;28;20035;-70
2022/08/11 11:48:52;;;;;;;2.72;1.10;;;;;;;36.96;17.96;99003.44;5106343;28;20035;-70
2022/08/11 11:51:19;;;;;;;3.45;1.10;;;;;;;38.26;17.57;99007.13;5101279;28;20031;-69
2022/08/11 11:53:46;;;;;;;2.30;1.00;;;;;;;36.64;18.20;99001.66;5107771;28;20027;-70
2022/08/11 11:56:13;;;;;;;1.27;0.98;;;;;;;37.83;17.82;98996.03;5107367;28;20020;-70
2022/08/11 12:01:24;;;;;;;1.30;0.90;;;;;;;38.85;16.76;98988.41;5101677;28;20133;-71
2022/08/11 12:03:52;;;;;;;1.30;0.88;;;;;;;39.06;16.91;98985.00;5103409;28;20035;-70
2022/08/11 12:06:22;;;;;;;3.92;1.30;;;;;;;39.83;15.40;98994.56;5105296;28;20024;-70
2022/08/11 12:08:50;;;;;;;2.83;1.08;;;;;;;39.23;16.00;98994.88;5104215;28;20027;-70
2022/08/11 12:14:06;;;;;;;1.00;0.90;;;;;;;39.01;16.28;98979.72;5103173;28;20606;-68
2022/08/11 12:16:34;;;;;;;1.48;1.10;;;;;;;39.90;15.56;98987.28;5105233;28;20028;-69
2022/08/11 12:19:00;;;;;;;1.65;0.70;;;;;;;39.27;15.78;98989.22;5102826;28;20028;-68
2022/08/11 12:21:28;;;;;;;1.13;0.85;;;;;;;38.70;15.59;98973.34;5106358;28;20027;-69
2022/08/11 12:29:26;;;;;;;3.33;1.10;;;;;;;37.96;16.71;98978.84;5105304;28;20103;-69
2022/08/11 12:31:54;;;;;;;0.75;0.70;;;;;;;38.25;16.13;98968.75;5105234;28;20027;-72
2022/08/11 12:34:20;;;;;;;1.50;0.80;;;;;;;39.38;15.74;98956.19;5101396;28;20549;-73
2022/08/11 12:36:53;;;;;;;1.88;0.90;;;;;;;39.45;15.81;98959.88;5106025;28;20031;-72
2022/08/11 12:45:26;;;;;;;2.63;1.10;;;;;;;39.26;16.33;98950.81;5081575;28;20626;-69
2022/08/11 12:51:58;;;;;;;1.85;0.73;;;;;;;38.67;16.34;98945.81;4998426;28;20049;-75
2022/08/11 12:53:59;;;;;;;1.85;0.82;;;;;;;39.45;15.87;98948.56;5087888;28;20127;-75
2022/08/11 13:04:58;;;;;;;2.75;1.00;;;;;;;40.03;14.80;98924.19;5103241;28;20053;-69
2022/08/11 13:07:27;;;;;;;1.13;1.02;;;;;;;40.11;15.06;98925.03;5102432;28;20093;-69
2022/08/11 13:09:55;;;;;;;0.75;0.75;;;;;;;37.88;16.57;98921.44;5105993;28;20111;-69
2022/08/11 13:15:07;;;;;;;1.45;0.70;;;;;;;38.63;16.11;98930.03;5102433;28;20507;-68
2022/08/11 13:17:33;;;;;;;0.88;0.75;;;;;;;37.81;16.23;98925.00;5103768;28;20039;-69
2022/08/11 13:19:59;;;;;;;1.05;0.70;;;;;;;38.95;15.75;98922.69;5098689;28;20614;-68
2022/08/11 13:22:26;;;;;;;0.88;0.70;;;;;;;39.35;15.30;98914.50;5100111;28;20630;-68
2022/08/11 13:24:54;;;;;;;1.33;0.90;;;;;;;37.74;16.21;98918.44;5099884;28;20400;-68
2022/08/11 13:27:20;;;;;;;2.40;0.90;;;;;;;37.15;17.08;98923.59;5100969;28;20501;-69
2022/08/11 13:29:47;;;;;;;1.05;0.95;;;;;;;37.36;16.29;98918.28;5091491;28;20532;-69
2022/08/11 13:32:14;;;;;;;1.50;1.00;;;;;;;37.14;16.49;98913.50;5086530;28;20035;-69
2022/08/11 13:34:42;;;;;;;1.60;0.80;;;;;;;38.27;16.06;98904.19;5105600;28;20409;-68
2022/08/11 13:37:11;;;;;;;2.05;0.80;;;;;;;38.95;15.49;98905.69;5105719;28;20023;-68
2022/08/11 13:39:45;;;;;;;2.45;1.00;;;;;;;38.95;15.73;98902.88;5100954;28;20020;-69
2022/08/11 13:42:13;;;;;;;1.38;0.95;;;;;;;38.85;15.90;98892.25;5100782;28;20146;-69
2022/08/11 13:44:38;;;;;;;1.98;0.80;;;;;;;37.68;16.22;98909.50;5099255;28;20031;-69
2022/08/11 13:47:06;;;;;;;1.23;0.82;;;;;;;37.81;16.13;98898.75;5105962;28;20034;-68
2022/08/11 13:49:35;;;;;;;6.80;1.00;;;;;;;38.89;15.49;98890.31;5099996;28;20015;-69
2022/08/11 13:52:03;;;;;;;3.60;0.88;;;;;;;38.39;16.04;98886.97;5096734;28;20024;-69
2022/08/11 13:54:35;;;;;;;5.97;1.10;;;;;;;38.98;15.96;98878.66;5096651;28;20035;-69
2022/08/11 13:57:05;;;;;;;2.42;0.90;;;;;;;38.92;15.79;98885.88;5097713;28;20101;-69
2022/08/11 13:59:31;;;;;;;1.17;0.85;;;;;;;38.75;15.63;98882.50;5102010;28;20641;-68
2022/08/11 14:02:03;;;;;;;1.50;0.70;;;;;;;38.64;15.89;98880.75;5101544;28;20051;-69
2022/08/11 14:04:59;;;;;;;1.20;0.70;;;;;;;38.20;16.14;98876.69;5102573;28;20027;-69
2022/08/11 14:07:33;;;;;;;2.17;0.90;;;;;;;39.06;15.57;98876.69;5096799;28;20050;-69
2022/08/11 14:09:59;;;;;;;1.42;0.95;;;;;;;39.40;15.47;98872.47;5094525;28;20032;-69
2022/08/11 14:15:20;;;;;;;4.32;0.90;;;;;;;39.08;15.19;98869.44;5103822;28;20046;-69
2022/08/11 14:17:53;;;;;;;2.05;1.00;;;;;;;38.03;15.75;98877.28;5080820;28;20039;-68
2022/08/11 14:20:19;;;;;;;1.70;0.80;;;;;;;38.17;16.09;98860.47;5097822;28;20023;-69
2022/08/11 14:22:46;;;;;;;4.72;0.98;;;;;;;38.43;15.61;98865.22;5102052;28;20028;-69
2022/08/11 14:25:15;;;;;;;2.05;1.20;;;;;;;38.72;15.83;98863.44;5098221;28;20123;-69
2022/08/11 14:27:43;;;;;;;1.55;0.75;;;;;;;37.48;16.19;98872.91;5093107;28;20023;-74
2022/08/11 14:30:53;;;;;;;1.27;0.88;;;;;;;37.98;16.20;98861.47;5092366;28;20031;-71
2022/08/11 14:32:55;;;;;;;1.52;0.80;;;;;;;39.12;15.53;98858.97;5098681;28;20032;-71
2022/08/11 14:35:20;;;;;;;2.45;1.00;;;;;;;39.24;14.87;98850.13;5102784;28;20088;-74
2022/08/11 14:37:46;;;;;;;1.00;0.85;;;;;;;37.97;15.64;98853.41;5097936;28;20494;-71
2022/08/11 14:47:03;;;;;;;1.30;0.75;;;;;;;37.88;16.24;98859.31;5098060;28;20031;-70
2022/08/11 14:48:28;;;;;;;4.80;0.90;;;;;;;36.28;16.99;98855.59;5092868;28;20528;-71
2022/08/11 14:50:54;;;;;;;1.25;0.90;;;;;;;36.34;16.86;98840.84;5100717;28;20023;-71
2022/08/11 14:53:21;;;;;;;1.30;0.95;;;;;;;36.41;17.15;98849.38;5101917;28;20028;-71
2022/08/11 14:58:32;;;;;;;3.40;1.20;;;;;;;36.85;16.39;98823.59;5104172;28;20042;-73
2022/08/11 15:01:00;;;;;;;1.63;0.90;;;;;;;36.05;16.65;98842.25;5103872;28;20030;-70
2022/08/11 15:03:29;;;;;;;1.23;0.88;;;;;;;35.69;17.31;98837.94;5103502;28;20035;-71
2022/08/11 15:06:00;;;;;;;2.08;0.80;;;;;;;35.81;17.20;98834.94;5093856;28;20369;-71
2022/08/11 15:14:07;;;;;;;2.90;1.00;;;;;;;35.39;17.67;98832.84;5102217;28;20074;-71
2022/08/11 15:19:19;;;;;;;2.53;1.10;;;;;;;36.31;17.41;98824.66;5100070;28;20122;-71
2022/08/11 15:24:29;;;;;;;1.90;0.75;;;;;;;35.62;17.40;98824.50;5098015;28;20034;-70
2022/08/11 15:38:01;;;;;;;1.88;0.93;;;;;;;34.65;18.71;98808.22;5097630;28;20039;-70
2022/08/11 15:46:45;;;;;;;3.53;1.10;;;;;;;35.70;18.41;98802.97;5101487;28;20090;-71
2022/08/11 15:49:21;;;;;;;1.77;1.08;;;;;;;35.86;18.62;98798.03;5095586;28;20039;-71
2022/08/11 15:51:54;;;;;;;2.10;1.17;;;;;;;35.82;18.42;98797.19;5081008;28;20042;-70
2022/08/11 15:54:25;;;;;;;1.27;1.10;;;;;;;35.00;18.76;98801.78;5097343;28;20110;-70
2022/08/11 15:56:53;;;;;;;1.17;0.90;;;;;;;34.75;18.72;98801.22;5098083;28;20588;-73
2022/08/11 16:04:10;;;;;;;5.43;1.10;;;;;;;33.42;19.60;98807.22;5101608;28;20550;-71
2022/08/11 16:04:56;;;;;;;3.22;1.00;;;;;;;32.89;20.22;98798.75;5099167;28;20043;-70
2022/08/11 16:07:29;;;;;;;1.85;1.10;;;;;;;32.93;20.47;98800.53;5106373;28;20031;-70
2022/08/11 16:09:58;;;;;;;3.22;1.08;;;;;;;32.49;20.30;98803.09;5082816;28;20190;-70
2022/08/11 16:12:27;;;;;;;;;;;;;;;32.27;20.90;98797.91;5105536;28;20027;-71
2022/08/11 16:17:43;;;;;;;3.60;1.17;;;;;;;31.87;22.00;98802.09;5107814;28;19976;-70
2022/08/11 16:20:10;;;;;;;1.35;1.20;;;;;;;32.17;21.62;98784.34;5098934;28;20492;-70
2022/08/11 16:22:45;;;;;;;3.30;1.17;;;;;;;32.21;21.56;98782.50;5105720;27;20468;-70
2022/08/11 16:25:16;;;;;;;1.92;1.13;;;;;;;32.21;21.73;98776.91;5092993;28;20020;-70
2022/08/11 16:27:45;;;;;;;1.35;1.15;;;;;;;32.12;22.05;98784.56;5101677;28;20042;-71
2022/08/11 16:30:13;;;;;;;2.30;1.20;;;;;;;32.11;21.64;98788.53;5105628;28;20123;-70
2022/08/11 16:32:43;;;;;;;6.83;1.30;;;;;;;31.88;21.74;98777.72;5100691;28;20077;-71
2022/08/11 16:40:43;;;;;;;2.28;1.30;;;;;;;30.86;22.24;98753.94;5105104;28;20354;-70
2022/08/11 16:48:46;;;;;;;5.55;1.23;;;;;;;31.05;22.65;98773.84;5097373;28;20088;-71
2022/08/11 16:51:12;;;;;;;1.92;1.30;;;;;;;30.83;22.68;98768.59;5104556;28;20138;-74
2022/08/11 16:53:39;;;;;;;3.67;1.33;;;;;;;30.44;22.70;98770.56;5096319;28;20031;-73